Rising Sun, Montana
Current Conditions -  °F | °C
As of 8:55 AM on Sunday 21 Dec 2014 (Local Time) from KGPI Reporting Station
Overcast Overcast  
Wind Chill: 27°   Ceiling: 3900
Heat Index: 33°   Visibility: 10mi
Dew Point: 33°   Wind: 7mph
Humidity: 100%   Direction: 200°SSW
Pressure: 29.48"   Gusts: NA
Location:  48.7064°N, 113.591°W
Report Text: KGPI 211555Z 20006KT 10SM SCT014 BKN039 OVC070 01/01 A2948 RMK AO2 SLP005 T00060006 $
Loading
Personal Weather Stations






























Interactive Weather Map New forecast layout! Learn more

10-Day Weather Forecast

Advertisements
Track Severe Weather on mobile